MSC Lea — 9HA2639 — position and weather

sailwx.info

Track history (hours):
 
Tides and Currents Weather Stations Pressure Air Temp Water Temp Dewpoint Dewpoint Depression Visibility Wind Speed Wind Dir Waves Ship Positions

MSC Lea

Last reported at 2014-Oct-28 22:04 UTC. Time now 2014-Oct-30 15:58 UTC.
Position N 36°26' E 026°54'.

Length 217 m; draft 9 m.

Type: Ship (hazmat cat A). MMSI: 215101000.

Date/timePositionNaut miles runAvg speedWind from/ knotsBaromVisibWave heightAir tempDewpointWater temp
2014-Oct-28 22:04N 36°26' E 026°54'713.1
2014-Oct-28 21:33N 36°30' E 026°47'1312.9
2014-Oct-28 20:33N 36°40' E 026°36'1413.6
2014-Oct-28 19:32N 36°49' E 026°23'1313.7
2014-Oct-28 18:33N 36°58' E 026°11'1413.7
2014-Oct-28 17:33N 37°11' E 026°04'1414.0
2014-Oct-28 16:33N 37°23' E 025°57'1313.2
2014-Oct-28 15:33N 37°36' E 025°52'1313.4
2014-Oct-28 14:33N 37°49' E 025°50'108 2.3
2014-Oct-26 15:19N 39°37' E 025°44'2513.4
2014-Oct-26 13:29N 39°59' E 025°57'14211.6
2014-Oct-26 01:09N 40°45' E 028°54'814.0
2014-Oct-26 00:33N 40°45' E 029°05'1312.8
2014-Oct-25 23:33N 40°45' E 029°22'8 1.2
2014-Oct-25 17:12N 40°46' E 029°32'1 1.6
2014-Oct-25 16:33N 40°45' E 029°31'9 8.9
2014-Oct-25 15:33N 40°44' E 029°19'1312.8
2014-Oct-25 14:33N 40°43' E 029°02'1313.1
2014-Oct-25 13:32N 40°46' E 028°45'12 1.3
2014-Oct-25 04:32N 40°57' E 028°41'9 8.7
2014-Oct-25 03:32N 40°55' E 028°52'37 6.2
2014-Oct-24 21:33N 41°26' E 029°19'1313.4
2014-Oct-24 20:33N 41°32' E 029°35'20713.6
2014-Oct-24 05:23N 43°05' E 033°45'2513.7
2014-Oct-24 03:32N 43°17' E 034°16'1413.7
2014-Oct-24 02:29N 43°23' E 034°33'4713.9
2014-Oct-23 23:05N 43°45' E 035°32'2614.3
2014-Oct-23 21:16N 43°57' E 036°03'2714.4
2014-Oct-23 19:24N 44°10' E 036°36'1714.4
2014-Oct-23 18:12N 44°16' E 036°59'2914.8
2014-Oct-23 16:16N 44°30' E 037°34'1014.4
2014-Oct-23 15:34N 44°36' E 037°46'8 8.1
2014-Oct-23 14:34N 44°44' E 037°47'0 0.4
2014-Oct-23 13:32N 44°44' E 037°47'0 0.0
2014-Oct-23 12:32N 44°44' E 037°47'0 0.0
2014-Oct-23 11:33N 44°44' E 037°47'0 0.0
2014-Oct-23 10:25N 44°44' E 037°47'0 0.0
2014-Oct-23 09:31N 44°44' E 037°47'0 0.0
2014-Oct-23 08:32N 44°44' E 037°47'0 0.0
2014-Oct-23 07:33N 44°44' E 037°47'0 0.0
2014-Oct-23 06:33N 44°44' E 037°47'0 0.0
2014-Oct-23 05:31N 44°44' E 037°47'0 0.0
2014-Oct-23 04:32N 44°44' E 037°47'0 0.0
2014-Oct-23 03:32N 44°44' E 037°47'0 0.0
2014-Oct-23 02:33N 44°44' E 037°47'0 0.0
2014-Oct-23 01:22N 44°44' E 037°47'0 0.0
2014-Oct-23 00:32N 44°44' E 037°47'0 0.0
2014-Oct-22 23:32N 44°44' E 037°47'0 0.0
2014-Oct-22 22:18N 44°44' E 037°47'0 0.0
2014-Oct-22 21:33N 44°44' E 037°47'0 0.0
2014-Oct-22 20:31N 44°44' E 037°47'0 0.0
2014-Oct-22 19:32N 44°44' E 037°47'0 0.0
2014-Oct-22 18:32N 44°44' E 037°47'0 0.0
2014-Oct-22 17:33N 44°44' E 037°47'0 0.0
2014-Oct-22 16:25N 44°44' E 037°47'0 0.0
2014-Oct-22 15:31N 44°44' E 037°47'0 0.0
2014-Oct-22 14:32N 44°44' E 037°47'0 0.0
2014-Oct-22 13:30N 44°44' E 037°47'0 0.0
2014-Oct-22 12:33N 44°44' E 037°47'0 0.0
2014-Oct-22 11:31N 44°44' E 037°47'0 0.0
2014-Oct-22 10:32N 44°44' E 037°47'0 0.0
2014-Oct-22 09:29N 44°44' E 037°47'0 0.0
2014-Oct-22 08:33N 44°44' E 037°47'1 0.7
2014-Oct-22 07:34N 44°43' E 037°48'6 5.7
2014-Oct-22 06:33N 44°38' E 037°51'7 6.4
2014-Oct-22 05:32N 44°35' E 037°43'1 0.7
2014-Oct-22 04:33N 44°34' E 037°43'1 0.8
2014-Oct-22 03:34N 44°33' E 037°43'1 0.8
2014-Oct-22 02:34N 44°33' E 037°43'1 0.8
2014-Oct-22 01:34N 44°32' E 037°44'1 1.0
2014-Oct-22 00:34N 44°31' E 037°44'1 1.2
2014-Oct-21 23:33N 44°30' E 037°45'1 1.2
2014-Oct-21 22:33N 44°29' E 037°45'2 1.6
2014-Oct-21 21:31N 44°28' E 037°47'2 1.6
2014-Oct-21 20:31N 44°26' E 037°48'1 0.7
2014-Oct-21 19:34N 44°25' E 037°48'10 9.7
2014-Oct-21 18:34N 44°27' E 037°34'11013.0
2014-Oct-21 10:06N 43°36' E 035°19'1213.5
2014-Oct-21 09:15N 43°31' E 035°05'2413.6
2014-Oct-21 07:29N 43°19' E 034°36'1313.6
2014-Oct-21 06:31N 43°14' E 034°20'23213.4
2014-Oct-20 13:11N 41°27' E 029°41'913.5
2014-Oct-20 12:34N 41°23' E 029°31'1413.7
2014-Oct-20 11:33N 41°17' E 029°15'2110.5
2014-Oct-20 09:33N 40°59' E 028°60'1110.6
2014-Oct-20 08:32N 40°48' E 028°55'2 1.6
2014-Oct-20 07:31N 40°47' E 028°55'0 0.3
2014-Oct-20 06:32N 40°47' E 028°56'0 0.3
2014-Oct-20 05:33N 40°47' E 028°56'0 0.4
2014-Oct-20 04:33N 40°47' E 028°56'0 0.4
2014-Oct-20 03:33N 40°48' E 028°57'3 2.8
2014-Oct-20 02:33N 40°48' E 028°53'2 1.9
2014-Oct-20 01:33N 40°50' E 028°53'1 0.7
2014-Oct-20 00:31N 40°49' E 028°53'1 0.7
2014-Oct-19 23:33N 40°49' E 028°54'1 0.7
2014-Oct-19 22:33N 40°48' E 028°54'1 0.7
2014-Oct-19 21:32N 40°47' E 028°55'1 0.5
2014-Oct-19 20:33N 40°47' E 028°55'0 0.4
2014-Oct-19 19:31N 40°47' E 028°56'5 5.5
2014-Oct-19 18:32N 40°46' E 028°49'10 9.5
2014-Oct-19 17:30N 40°44' E 028°36'1 1.1
2014-Oct-19 16:24N 40°45' E 028°37'1 0.8
2014-Oct-19 15:27N 40°45' E 028°38'1 1.2
2014-Oct-19 14:24N 40°45' E 028°40'1 1.3
2014-Oct-19 13:27N 40°46' E 028°41'1 1.4
2014-Oct-19 12:29N 40°46' E 028°43'1 1.6
2014-Oct-19 11:32N 40°45' E 028°45'1 1.0
2014-Oct-19 10:31N 40°45' E 028°46'1010.1
2014-Oct-19 09:30N 40°54' E 028°41'  
Track history (hours):
 
Tides and Currents Weather Stations Pressure Air Temp Water Temp Dewpoint Dewpoint Depression Visibility Wind Speed Wind Dir Waves Ship Positions

MSC Lea

Last reported at 2014-Oct-28 22:04 UTC. Time now 2014-Oct-30 15:58 UTC.
Position N 36°26' E 026°54'.

Length 217 m; draft 9 m.

Type: Ship (hazmat cat A). MMSI: 215101000.

Date/timePositionNaut miles runAvg speedWind from/ knotsBaromVisibWave heightAir tempDewpointWater temp
2014-Oct-28 22:04N 36°26' E 026°54'713.1
2014-Oct-28 21:33N 36°30' E 026°47'1312.9
2014-Oct-28 20:33N 36°40' E 026°36'1413.6
2014-Oct-28 19:32N 36°49' E 026°23'1313.7
2014-Oct-28 18:33N 36°58' E 026°11'1413.7
2014-Oct-28 17:33N 37°11' E 026°04'1414.0
2014-Oct-28 16:33N 37°23' E 025°57'1313.2
2014-Oct-28 15:33N 37°36' E 025°52'1313.4
2014-Oct-28 14:33N 37°49' E 025°50'108 2.3
2014-Oct-26 15:19N 39°37' E 025°44'2513.4
2014-Oct-26 13:29N 39°59' E 025°57'14211.6
2014-Oct-26 01:09N 40°45' E 028°54'814.0
2014-Oct-26 00:33N 40°45' E 029°05'1312.8
2014-Oct-25 23:33N 40°45' E 029°22'8 1.2
2014-Oct-25 17:12N 40°46' E 029°32'1 1.6
2014-Oct-25 16:33N 40°45' E 029°31'9 8.9
2014-Oct-25 15:33N 40°44' E 029°19'1312.8
2014-Oct-25 14:33N 40°43' E 029°02'1313.1
2014-Oct-25 13:32N 40°46' E 028°45'12 1.3
2014-Oct-25 04:32N 40°57' E 028°41'9 8.7
2014-Oct-25 03:32N 40°55' E 028°52'37 6.2
2014-Oct-24 21:33N 41°26' E 029°19'1313.4
2014-Oct-24 20:33N 41°32' E 029°35'20713.6
2014-Oct-24 05:23N 43°05' E 033°45'2513.7
2014-Oct-24 03:32N 43°17' E 034°16'1413.7
2014-Oct-24 02:29N 43°23' E 034°33'4713.9
2014-Oct-23 23:05N 43°45' E 035°32'2614.3
2014-Oct-23 21:16N 43°57' E 036°03'2714.4
2014-Oct-23 19:24N 44°10' E 036°36'1714.4
2014-Oct-23 18:12N 44°16' E 036°59'2914.8
2014-Oct-23 16:16N 44°30' E 037°34'1014.4
2014-Oct-23 15:34N 44°36' E 037°46'8 8.1
2014-Oct-23 14:34N 44°44' E 037°47'0 0.4
2014-Oct-23 13:32N 44°44' E 037°47'0 0.0
2014-Oct-23 12:32N 44°44' E 037°47'0 0.0
2014-Oct-23 11:33N 44°44' E 037°47'0 0.0
2014-Oct-23 10:25N 44°44' E 037°47'0 0.0
2014-Oct-23 09:31N 44°44' E 037°47'0 0.0
2014-Oct-23 08:32N 44°44' E 037°47'0 0.0
2014-Oct-23 07:33N 44°44' E 037°47'0 0.0
2014-Oct-23 06:33N 44°44' E 037°47'0 0.0
2014-Oct-23 05:31N 44°44' E 037°47'0 0.0
2014-Oct-23 04:32N 44°44' E 037°47'0 0.0
2014-Oct-23 03:32N 44°44' E 037°47'0 0.0
2014-Oct-23 02:33N 44°44' E 037°47'0 0.0
2014-Oct-23 01:22N 44°44' E 037°47'0 0.0
2014-Oct-23 00:32N 44°44' E 037°47'0 0.0
2014-Oct-22 23:32N 44°44' E 037°47'0 0.0
2014-Oct-22 22:18N 44°44' E 037°47'0 0.0
2014-Oct-22 21:33N 44°44' E 037°47'0 0.0
2014-Oct-22 20:31N 44°44' E 037°47'0 0.0
2014-Oct-22 19:32N 44°44' E 037°47'0 0.0
2014-Oct-22 18:32N 44°44' E 037°47'0 0.0
2014-Oct-22 17:33N 44°44' E 037°47'0 0.0
2014-Oct-22 16:25N 44°44' E 037°47'0 0.0
2014-Oct-22 15:31N 44°44' E 037°47'0 0.0
2014-Oct-22 14:32N 44°44' E 037°47'0 0.0
2014-Oct-22 13:30N 44°44' E 037°47'0 0.0
2014-Oct-22 12:33N 44°44' E 037°47'0 0.0
2014-Oct-22 11:31N 44°44' E 037°47'0 0.0
2014-Oct-22 10:32N 44°44' E 037°47'0 0.0
2014-Oct-22 09:29N 44°44' E 037°47'0 0.0
2014-Oct-22 08:33N 44°44' E 037°47'1 0.7
2014-Oct-22 07:34N 44°43' E 037°48'6 5.7
2014-Oct-22 06:33N 44°38' E 037°51'7 6.4
2014-Oct-22 05:32N 44°35' E 037°43'1 0.7
2014-Oct-22 04:33N 44°34' E 037°43'1 0.8
2014-Oct-22 03:34N 44°33' E 037°43'1 0.8
2014-Oct-22 02:34N 44°33' E 037°43'1 0.8
2014-Oct-22 01:34N 44°32' E 037°44'1 1.0
2014-Oct-22 00:34N 44°31' E 037°44'1 1.2
2014-Oct-21 23:33N 44°30' E 037°45'1 1.2
2014-Oct-21 22:33N 44°29' E 037°45'2 1.6
2014-Oct-21 21:31N 44°28' E 037°47'2 1.6
2014-Oct-21 20:31N 44°26' E 037°48'1 0.7
2014-Oct-21 19:34N 44°25' E 037°48'10 9.7
2014-Oct-21 18:34N 44°27' E 037°34'11013.0
2014-Oct-21 10:06N 43°36' E 035°19'1213.5
2014-Oct-21 09:15N 43°31' E 035°05'2413.6
2014-Oct-21 07:29N 43°19' E 034°36'1313.6
2014-Oct-21 06:31N 43°14' E 034°20'23213.4
2014-Oct-20 13:11N 41°27' E 029°41'913.5
2014-Oct-20 12:34N 41°23' E 029°31'1413.7
2014-Oct-20 11:33N 41°17' E 029°15'2110.5
2014-Oct-20 09:33N 40°59' E 028°60'1110.6
2014-Oct-20 08:32N 40°48' E 028°55'2 1.6
2014-Oct-20 07:31N 40°47' E 028°55'0 0.3
2014-Oct-20 06:32N 40°47' E 028°56'0 0.3
2014-Oct-20 05:33N 40°47' E 028°56'0 0.4
2014-Oct-20 04:33N 40°47' E 028°56'0 0.4
2014-Oct-20 03:33N 40°48' E 028°57'3 2.8
2014-Oct-20 02:33N 40°48' E 028°53'2 1.9
2014-Oct-20 01:33N 40°50' E 028°53'1 0.7
2014-Oct-20 00:31N 40°49' E 028°53'1 0.7
2014-Oct-19 23:33N 40°49' E 028°54'1 0.7
2014-Oct-19 22:33N 40°48' E 028°54'1 0.7
2014-Oct-19 21:32N 40°47' E 028°55'1 0.5
2014-Oct-19 20:33N 40°47' E 028°55'0 0.4
2014-Oct-19 19:31N 40°47' E 028°56'5 5.5
2014-Oct-19 18:32N 40°46' E 028°49'10 9.5
2014-Oct-19 17:30N 40°44' E 028°36'1 1.1
2014-Oct-19 16:24N 40°45' E 028°37'1 0.8
2014-Oct-19 15:27N 40°45' E 028°38'1 1.2
2014-Oct-19 14:24N 40°45' E 028°40'1 1.3
2014-Oct-19 13:27N 40°46' E 028°41'1 1.4
2014-Oct-19 12:29N 40°46' E 028°43'1 1.6
2014-Oct-19 11:32N 40°45' E 028°45'1 1.0
2014-Oct-19 10:31N 40°45' E 028°46'1010.1
2014-Oct-19 09:30N 40°54' E 028°41'  

Dump ship's entire track history